createdAt,value
2017-09-11T00:01:06.892Z,4.83
2017-09-11T00:03:35.259Z,4.93
2017-09-11T00:06:03.687Z,3.47
2017-09-11T00:08:31.293Z,3.93
2017-09-11T00:10:59.717Z,4.80
2017-09-11T00:13:27.320Z,5.30
2017-09-11T00:15:54.936Z,5.10
2017-09-11T00:18:22.524Z,8.40
2017-09-11T00:20:50.169Z,4.87
2017-09-11T00:23:17.789Z,4.73
2017-09-11T00:25:46.167Z,3.03
2017-09-11T00:28:13.773Z,7.03
2017-09-11T00:30:41.410Z,3.90
2017-09-11T00:33:09.029Z,7.27
2017-09-11T00:35:36.640Z,4.23
2017-09-11T00:38:04.251Z,4.93
2017-09-11T00:40:31.896Z,3.67
2017-09-11T00:42:59.494Z,4.20
2017-09-11T00:45:27.122Z,4.93
2017-09-11T00:47:54.737Z,4.30
2017-09-11T00:50:22.328Z,5.43
2017-09-11T00:52:49.939Z,5.10
2017-09-11T00:55:18.296Z,5.33
2017-09-11T00:57:45.921Z,7.67
2017-09-11T01:00:13.520Z,6.07
2017-09-11T01:02:41.919Z,4.30
2017-09-11T01:05:10.280Z,4.47
2017-09-11T01:07:38.670Z,3.20
2017-09-11T01:10:07.027Z,4.30
2017-09-11T01:12:34.657Z,3.63
2017-09-11T01:15:02.254Z,7.83
2017-09-11T01:17:29.894Z,7.83
2017-09-11T01:19:57.492Z,3.80
2017-09-11T01:22:25.889Z,2.93
2017-09-11T01:24:53.478Z,4.53
2017-09-11T01:27:21.828Z,3.60
2017-09-11T01:29:49.421Z,4.30
2017-09-11T01:32:17.045Z,4.07
2017-09-11T01:34:44.644Z,4.07
2017-09-11T01:37:12.280Z,3.00
2017-09-11T01:39:39.901Z,4.90
2017-09-11T01:42:07.487Z,3.93
2017-09-11T01:44:35.872Z,6.97
2017-09-11T01:47:03.463Z,2.60
2017-09-11T01:49:31.077Z,3.20
2017-09-11T01:51:58.680Z,5.03
2017-09-11T01:54:26.313Z,4.40
2017-09-11T01:56:53.916Z,3.20
2017-09-11T01:59:21.528Z,3.23
2017-09-11T02:01:49.888Z,3.40
2017-09-11T02:04:18.281Z,4.47
2017-09-11T02:06:46.665Z,3.37
2017-09-11T02:09:15.044Z,4.00
2017-09-11T02:11:43.487Z,11.23
2017-09-11T02:14:11.100Z,4.47
2017-09-11T02:16:38.716Z,4.60
2017-09-11T02:19:06.433Z,4.00
2017-09-11T02:21:34.014Z,5.90
2017-09-11T02:24:02.995Z,7.03
2017-09-11T02:26:30.586Z,6.43
2017-09-11T02:28:58.222Z,4.13
2017-09-11T02:31:25.827Z,3.20
2017-09-11T02:33:54.223Z,2.43
2017-09-11T02:36:22.640Z,3.60
2017-09-11T02:38:50.229Z,4.43
2017-09-11T02:41:18.646Z,4.37
2017-09-11T02:43:46.676Z,3.50
2017-09-11T02:46:14.332Z,2.53
2017-09-11T02:48:41.945Z,4.17
2017-09-11T02:51:09.569Z,7.33
2017-09-11T02:53:37.156Z,5.73
2017-09-11T02:56:04.776Z,2.83
2017-09-11T02:58:32.378Z,3.40
2017-09-11T03:01:00.001Z,7.07
2017-09-11T03:03:27.583Z,6.07
2017-09-11T03:05:55.233Z,2.90
2017-09-11T03:08:22.841Z,4.10
2017-09-11T03:10:50.460Z,3.60
2017-09-11T03:13:18.811Z,5.80
2017-09-11T03:15:46.419Z,4.27
2017-09-11T03:18:14.045Z,3.00
2017-09-11T03:20:41.660Z,5.27
2017-09-11T03:23:09.261Z,2.63
2017-09-11T03:25:36.898Z,5.90
2017-09-11T03:28:04.484Z,4.00
2017-09-11T03:30:32.126Z,3.40
2017-09-11T03:32:59.714Z,3.43
2017-09-11T03:35:27.310Z,4.20
2017-09-11T03:37:54.935Z,2.73
2017-09-11T03:40:22.522Z,3.23
2017-09-11T03:42:50.917Z,4.50
2017-09-11T03:45:18.508Z,2.93
2017-09-11T03:47:46.126Z,3.90
2017-09-11T03:50:13.739Z,3.80
2017-09-11T03:52:42.145Z,3.50
2017-09-11T03:55:10.516Z,3.90
2017-09-11T03:57:38.169Z,2.63
2017-09-11T04:00:05.768Z,3.20
2017-09-11T04:02:33.396Z,6.90
2017-09-11T04:05:00.991Z,2.47
2017-09-11T04:07:28.622Z,4.13
2017-09-11T04:09:56.985Z,6.47
2017-09-11T04:12:24.622Z,8.23
2017-09-11T04:14:53.575Z,2.90
2017-09-11T04:17:21.958Z,2.83
2017-09-11T04:19:49.579Z,3.30
2017-09-11T04:22:17.179Z,3.33
2017-09-11T04:24:44.785Z,3.30
2017-09-11T04:27:12.420Z,5.10
2017-09-11T04:29:40.500Z,4.23
2017-09-11T04:32:08.091Z,3.40
2017-09-11T04:34:35.709Z,2.53
2017-09-11T04:37:03.318Z,5.00
2017-09-11T04:39:30.941Z,8.23
2017-09-11T04:41:58.540Z,4.63
2017-09-11T04:44:26.946Z,2.80
2017-09-11T04:46:55.770Z,7.33
2017-09-11T04:49:23.388Z,3.47
2017-09-11T04:51:51.767Z,7.17
2017-09-11T04:54:20.162Z,11.70
2017-09-11T04:56:48.534Z,2.70
2017-09-11T04:59:18.007Z,3.73
2017-09-11T05:01:45.601Z,4.73
2017-09-11T05:04:13.975Z,5.43
2017-09-11T05:06:42.343Z,3.57
2017-09-11T05:09:10.776Z,3.37
2017-09-11T05:11:38.373Z,9.60
2017-09-11T05:14:05.996Z,2.57
2017-09-11T05:16:33.610Z,4.03
2017-09-11T05:19:02.512Z,7.30
2017-09-11T05:21:30.873Z,6.03
2017-09-11T05:23:59.232Z,3.87
2017-09-11T05:26:26.860Z,3.67
2017-09-11T05:28:54.515Z,3.07
2017-09-11T05:31:22.137Z,6.60
2017-09-11T05:33:49.760Z,6.00
2017-09-11T05:36:17.377Z,3.13
2017-09-11T05:38:45.768Z,2.40
2017-09-11T05:41:13.390Z,3.07
2017-09-11T05:43:40.983Z,3.47
2017-09-11T05:46:09.359Z,2.57
2017-09-11T05:48:36.960Z,2.77
2017-09-11T05:51:04.601Z,3.20
2017-09-11T05:53:32.253Z,3.00
2017-09-11T05:55:59.875Z,4.13
2017-09-11T05:58:28.300Z,4.80
2017-09-11T06:00:55.919Z,3.40
2017-09-11T06:03:23.511Z,2.97
2017-09-11T06:05:51.906Z,4.10
2017-09-11T06:08:19.509Z,4.47
2017-09-11T06:10:47.119Z,3.03
2017-09-11T06:13:14.727Z,5.15
2017-09-11T06:15:43.115Z,3.70
2017-09-11T06:18:10.721Z,3.50
2017-09-11T06:20:38.320Z,3.00
2017-09-11T06:23:06.049Z,2.70
2017-09-11T06:25:33.648Z,4.03
2017-09-11T06:28:01.282Z,3.37
2017-09-11T06:30:28.908Z,2.70
2017-09-11T06:32:56.529Z,5.77
2017-09-11T06:35:27.342Z,2.80
2017-09-11T06:37:54.974Z,3.17
2017-09-11T06:40:23.333Z,2.80
2017-09-11T06:42:50.939Z,2.50
2017-09-11T06:45:18.528Z,10.13
2017-09-11T06:47:46.173Z,4.53
2017-09-11T06:50:13.795Z,4.73
2017-09-11T06:52:42.700Z,3.63
2017-09-11T06:55:11.087Z,6.07
2017-09-11T06:57:38.706Z,6.50
2017-09-11T07:00:06.360Z,8.53
2017-09-11T07:02:33.974Z,2.90
2017-09-11T07:05:02.196Z,5.30
2017-09-11T07:07:29.811Z,3.60
2017-09-11T07:09:58.687Z,4.53
2017-09-11T07:12:38.327Z,3.53
2017-09-11T07:15:06.698Z,3.20
2017-09-11T07:17:34.377Z,2.93
2017-09-11T07:20:02.753Z,6.63
2017-09-11T07:22:31.134Z,6.07
2017-09-11T07:24:59.517Z,4.30
2017-09-11T07:27:27.142Z,3.43
2017-09-11T07:29:54.752Z,4.63
2017-09-11T07:32:22.340Z,3.50
2017-09-11T07:34:49.960Z,3.90
2017-09-11T07:37:17.570Z,2.77
2017-09-11T07:39:45.185Z,3.03
2017-09-11T07:42:12.785Z,2.50
2017-09-11T07:44:40.414Z,4.33
2017-09-11T07:47:08.015Z,2.87
2017-09-11T07:49:35.632Z,3.83
2017-09-11T07:52:03.262Z,5.50
2017-09-11T07:54:31.652Z,5.20
2017-09-11T07:57:00.035Z,5.50
2017-09-11T07:59:28.421Z,3.13
2017-09-11T08:01:56.039Z,5.80
2017-09-11T08:04:23.660Z,5.60
2017-09-11T08:06:51.274Z,3.03
2017-09-11T08:09:18.916Z,4.33
2017-09-11T08:11:46.594Z,2.90
2017-09-11T08:14:14.211Z,5.90
2017-09-11T08:16:41.809Z,3.40
2017-09-11T08:19:09.429Z,6.10
2017-09-11T08:21:37.029Z,4.00
2017-09-11T08:24:04.641Z,4.57
2017-09-11T08:26:32.276Z,2.77
2017-09-11T08:29:00.641Z,2.30
2017-09-11T08:31:28.263Z,4.03
2017-09-11T08:33:55.860Z,2.60
2017-09-11T08:36:23.528Z,5.27
2017-09-11T08:38:51.128Z,4.70
2017-09-11T08:41:18.771Z,2.80
2017-09-11T08:43:47.152Z,6.50
2017-09-11T08:46:15.550Z,3.70
2017-09-11T08:48:43.147Z,3.43
2017-09-11T08:51:10.789Z,7.17
2017-09-11T08:53:38.379Z,5.33
2017-09-11T08:58:40.076Z,3.27
2017-09-11T09:01:07.699Z,4.63
2017-09-11T09:03:35.305Z,2.23
2017-09-11T09:06:03.696Z,4.33
2017-09-11T09:08:31.288Z,3.10
2017-09-11T09:10:58.918Z,5.17
2017-09-11T09:13:26.510Z,3.13
2017-09-11T09:15:54.139Z,4.87
2017-09-11T09:18:21.773Z,4.40
2017-09-11T09:20:50.145Z,4.40
2017-09-11T09:23:17.776Z,3.83
2017-09-11T09:25:47.660Z,2.47
2017-09-11T09:28:16.431Z,7.27
2017-09-11T09:30:51.213Z,2.10
2017-09-11T09:33:19.248Z,2.03
2017-09-11T09:35:46.853Z,2.97
2017-09-11T09:38:14.464Z,2.13
2017-09-11T09:40:42.091Z,2.77
2017-09-11T09:43:09.709Z,2.47
2017-09-11T09:45:37.345Z,4.23
2017-09-11T09:48:05.739Z,1.93
2017-09-11T09:50:33.337Z,3.90
2017-09-11T09:53:00.957Z,2.27
2017-09-11T09:55:28.737Z,2.00
2017-09-11T09:57:56.347Z,3.40
2017-09-11T10:00:23.935Z,2.03
2017-09-11T10:02:51.566Z,3.97
2017-09-11T10:05:19.944Z,2.43
2017-09-11T10:07:47.560Z,2.00
2017-09-11T10:10:15.168Z,3.97
2017-09-11T10:12:42.820Z,1.63
2017-09-11T10:15:11.200Z,5.60
2017-09-11T10:18:07.987Z,2.30
2017-09-11T10:20:35.645Z,1.80
2017-09-11T10:23:03.240Z,2.10
2017-09-11T10:25:30.868Z,2.10
2017-09-11T10:27:58.474Z,1.80
2017-09-11T10:30:26.144Z,1.83
2017-09-11T10:32:53.777Z,1.80
2017-09-11T10:35:21.416Z,1.40
2017-09-11T10:37:49.025Z,1.70
2017-09-11T10:40:16.657Z,1.93
2017-09-11T10:42:44.285Z,3.07
2017-09-11T10:45:12.669Z,1.70
2017-09-11T10:47:41.027Z,2.40
2017-09-11T10:50:08.694Z,1.33
2017-09-11T10:52:36.307Z,1.97
2017-09-11T10:55:03.958Z,3.93
2017-09-11T10:57:31.574Z,3.83
2017-09-11T10:59:59.979Z,2.87
2017-09-11T11:02:27.577Z,1.40
2017-09-11T11:04:55.198Z,2.00
2017-09-11T11:07:22.839Z,2.77
2017-09-11T11:09:51.188Z,2.87
2017-09-11T11:12:19.269Z,1.20
2017-09-11T11:14:46.864Z,1.33
2017-09-11T11:17:15.263Z,2.37
2017-09-11T11:19:42.905Z,3.10
2017-09-11T11:22:11.300Z,1.20
2017-09-11T11:24:38.885Z,1.30
2017-09-11T11:27:06.509Z,1.40
2017-09-11T11:29:34.130Z,1.33
2017-09-11T11:32:01.760Z,1.27
2017-09-11T11:34:30.216Z,1.03
2017-09-11T11:36:57.836Z,1.40
2017-09-11T11:39:25.442Z,1.53
2017-09-11T11:41:53.078Z,1.63
2017-09-11T11:44:21.452Z,3.43
2017-09-11T11:46:49.083Z,1.10
2017-09-11T11:49:16.682Z,1.37
2017-09-11T11:51:45.065Z,2.50
2017-09-11T11:54:12.671Z,1.47
2017-09-11T11:56:40.285Z,2.37
2017-09-11T11:59:08.665Z,3.87
2017-09-11T12:01:41.033Z,1.27
2017-09-11T12:04:09.520Z,1.77
2017-09-11T12:06:37.882Z,1.20
2017-09-11T12:09:06.300Z,1.33
2017-09-11T12:11:33.900Z,1.40
2017-09-11T12:14:01.528Z,2.13
2017-09-11T12:16:29.144Z,1.30
2017-09-11T12:18:56.755Z,1.43
2017-09-11T12:21:24.362Z,2.40
2017-09-11T12:23:51.988Z,1.57
2017-09-11T12:26:19.600Z,1.33
2017-09-11T12:28:48.438Z,1.30
2017-09-11T12:31:16.457Z,1.40
2017-09-11T12:33:44.845Z,1.47
2017-09-11T12:36:13.227Z,2.20
2017-09-11T12:38:41.613Z,1.40
2017-09-11T12:41:09.996Z,2.77
2017-09-11T12:43:37.616Z,1.43
2017-09-11T12:46:05.219Z,4.43
2017-09-11T12:48:32.848Z,23.23
2017-09-11T12:51:00.491Z,1.90
2017-09-11T12:53:28.103Z,1.60
2017-09-11T12:55:55.706Z,3.17
2017-09-11T12:58:23.332Z,1.53
2017-09-11T13:00:51.372Z,3.43
2017-09-11T13:03:19.732Z,2.30
2017-09-11T13:05:47.350Z,1.90
2017-09-11T13:08:14.993Z,4.27
2017-09-11T13:10:42.637Z,1.97
2017-09-11T13:13:11.000Z,2.30
2017-09-11T13:15:38.611Z,6.03
2017-09-11T13:18:07.476Z,6.30
2017-09-11T13:20:35.114Z,6.57
2017-09-11T13:23:03.475Z,2.60
2017-09-11T13:25:31.305Z,5.33
2017-09-11T13:27:59.739Z,2.43
2017-09-11T13:30:27.369Z,3.93
2017-09-11T13:32:54.960Z,2.83
2017-09-11T13:35:22.593Z,6.83
2017-09-11T13:37:50.186Z,2.23
2017-09-11T13:40:18.554Z,4.60
2017-09-11T13:42:46.177Z,26.93
2017-09-11T13:45:13.830Z,2.10
2017-09-11T13:47:41.456Z,19.60
2017-09-11T13:50:09.852Z,29.83
2017-09-11T13:52:37.456Z,8.23
2017-09-11T13:55:05.050Z,5.13
2017-09-11T13:57:33.449Z,5.23
2017-09-11T14:00:01.817Z,4.20
2017-09-11T14:02:30.204Z,5.30
2017-09-11T14:04:57.804Z,3.43
2017-09-11T14:07:25.441Z,6.20
2017-09-11T14:09:53.045Z,5.27
2017-09-11T14:12:20.668Z,2.60
2017-09-11T14:14:48.278Z,4.17
2017-09-11T14:17:15.902Z,3.83
2017-09-11T14:19:43.514Z,4.53
2017-09-11T14:22:11.927Z,2.33
2017-09-11T14:24:39.933Z,3.33
2017-09-11T14:27:07.539Z,1.73
2017-09-11T14:29:35.898Z,6.07
2017-09-11T14:32:03.519Z,3.30
2017-09-11T14:34:31.108Z,3.30
2017-09-11T14:36:59.521Z,3.20
2017-09-11T14:39:27.115Z,2.90
2017-09-11T14:41:55.898Z,1.93
2017-09-11T14:44:23.717Z,4.83
2017-09-11T14:46:52.104Z,6.20
2017-09-11T14:49:20.486Z,5.73
2017-09-11T14:51:48.876Z,5.93
2017-09-11T14:54:16.519Z,9.40
2017-09-11T14:56:45.034Z,72.50
2017-09-11T14:59:12.772Z,50.50
2017-09-11T15:01:40.507Z,49.80
2017-09-11T15:04:08.120Z,29.00
2017-09-11T15:06:35.752Z,55.10
2017-09-11T15:09:04.132Z,37.57
2017-09-11T15:11:32.484Z,7.53
2017-09-11T15:14:00.112Z,5.87
2017-09-11T15:16:27.717Z,24.03
2017-09-11T15:18:55.354Z,4.30
2017-09-11T15:21:22.944Z,4.30
2017-09-11T15:23:50.560Z,13.87
2017-09-11T15:26:18.166Z,4.03
2017-09-11T15:28:46.554Z,4.90
2017-09-11T15:31:15.658Z,2.80
2017-09-11T15:33:44.057Z,6.80
2017-09-11T15:36:11.653Z,6.20
2017-09-11T15:38:39.263Z,4.70
2017-09-11T15:41:06.864Z,2.67
2017-09-11T15:43:34.485Z,4.10
2017-09-11T15:46:02.092Z,4.57
2017-09-11T15:48:29.700Z,5.00
2017-09-11T15:50:57.320Z,3.50
2017-09-11T15:53:24.946Z,4.83
2017-09-11T15:55:52.818Z,3.37
2017-09-11T15:58:20.471Z,4.07
2017-09-11T16:00:48.087Z,5.50
2017-09-11T16:03:15.682Z,7.77
2017-09-11T16:05:43.696Z,6.83
2017-09-11T16:08:12.086Z,2.37
2017-09-11T16:10:39.695Z,7.30
2017-09-11T16:13:07.298Z,6.03
2017-09-11T16:15:34.939Z,7.23
2017-09-11T16:18:02.539Z,2.77
2017-09-11T16:20:30.174Z,4.10
2017-09-11T16:23:04.926Z,8.97
2017-09-11T16:25:32.581Z,3.53
2017-09-11T16:28:00.940Z,4.03
2017-09-11T16:30:28.568Z,4.47
2017-09-11T16:32:56.189Z,4.83
2017-09-11T16:35:23.821Z,5.87
2017-09-11T16:37:51.416Z,4.77
2017-09-11T16:40:19.812Z,4.00
2017-09-11T16:42:48.174Z,6.87
2017-09-11T16:45:15.805Z,3.90
2017-09-11T16:47:43.401Z,4.07
2017-09-11T16:50:10.992Z,2.60
2017-09-11T16:52:38.612Z,4.43
2017-09-11T16:55:06.226Z,7.50
2017-09-11T16:57:33.849Z,9.90
2017-09-11T17:00:01.461Z,5.00
2017-09-11T17:02:30.202Z,2.07
2017-09-11T17:04:58.032Z,4.87
2017-09-11T17:07:25.668Z,6.20
2017-09-11T17:09:53.274Z,7.27
2017-09-11T17:12:20.901Z,7.13
2017-09-11T17:14:48.489Z,4.57
2017-09-11T17:17:16.111Z,10.40
2017-09-11T17:19:43.696Z,5.30
2017-09-11T17:22:11.317Z,9.47
2017-09-11T17:24:38.920Z,6.73
2017-09-11T17:27:06.537Z,6.63
2017-09-11T17:29:34.146Z,2.70
2017-09-11T17:32:01.785Z,3.70
2017-09-11T17:34:29.365Z,6.07
2017-09-11T17:36:56.990Z,7.50
2017-09-11T17:39:25.018Z,5.43
2017-09-11T17:41:53.334Z,6.40
2017-09-11T17:44:20.960Z,3.80
2017-09-11T17:46:49.370Z,10.97
2017-09-11T17:49:16.983Z,11.33
2017-09-11T17:51:44.582Z,7.00
2017-09-11T17:54:12.209Z,5.20
2017-09-11T17:56:39.839Z,5.50
2017-09-11T17:59:07.452Z,7.87
2017-09-11T18:01:35.823Z,6.07
2017-09-11T18:04:03.429Z,6.13
2017-09-11T18:06:31.024Z,2.93
2017-09-11T18:08:58.660Z,5.77
2017-09-11T18:11:26.264Z,7.70
2017-09-11T18:13:53.906Z,6.43
2017-09-11T18:16:21.495Z,7.87
2017-09-11T18:18:49.156Z,7.70
2017-09-11T18:21:17.515Z,2.33
2017-09-11T18:23:45.123Z,4.13
2017-09-11T18:26:12.725Z,6.83
2017-09-11T18:28:40.350Z,4.47
2017-09-11T18:31:07.951Z,9.13
2017-09-11T18:33:35.541Z,9.33
2017-09-11T18:36:03.190Z,6.67
2017-09-11T18:38:30.794Z,2.80
2017-09-11T18:40:58.411Z,5.00
2017-09-11T18:43:26.816Z,4.90
2017-09-11T18:45:55.182Z,6.87
2017-09-11T18:48:23.544Z,3.70
2017-09-11T18:50:51.170Z,4.00
2017-09-11T18:53:18.764Z,3.90
2017-09-11T18:55:46.390Z,7.37
2017-09-11T18:58:14.001Z,2.63
2017-09-11T19:00:42.375Z,6.07
2017-09-11T19:03:10.733Z,7.33
2017-09-11T19:05:38.393Z,5.77
2017-09-11T19:08:05.995Z,6.80
2017-09-11T19:10:33.611Z,5.23
2017-09-11T19:13:01.208Z,5.77
2017-09-11T19:15:29.593Z,5.33
2017-09-11T19:17:57.184Z,4.03
2017-09-11T19:20:24.794Z,7.10
2017-09-11T19:22:53.157Z,6.30
2017-09-11T19:25:20.789Z,8.10
2017-09-11T19:27:48.377Z,2.43
2017-09-11T19:30:16.001Z,3.90
2017-09-11T19:32:43.611Z,5.23
2017-09-11T19:35:11.206Z,6.20
2017-09-11T19:37:38.827Z,5.83
2017-09-11T19:40:06.439Z,5.43
2017-09-11T19:42:34.081Z,3.67
2017-09-11T19:45:01.677Z,5.07
2017-09-11T19:47:29.297Z,6.03
2017-09-11T19:49:57.671Z,4.70
2017-09-11T19:52:26.091Z,15.80
2017-09-11T19:54:53.688Z,4.47
2017-09-11T19:57:22.108Z,3.90
2017-09-11T19:59:49.703Z,4.80
2017-09-11T20:02:17.329Z,5.30
2017-09-11T20:04:44.919Z,8.53
2017-09-11T20:07:12.544Z,5.43
2017-09-11T20:09:40.132Z,5.33
2017-09-11T20:12:07.797Z,12.00
2017-09-11T20:14:35.396Z,6.37
2017-09-11T20:17:03.018Z,4.90
2017-09-11T20:19:30.624Z,3.80
2017-09-11T20:21:59.021Z,8.90
2017-09-11T20:24:27.375Z,8.57
2017-09-11T20:26:55.018Z,4.93
2017-09-11T20:29:22.604Z,7.60
2017-09-11T20:31:51.001Z,3.27
2017-09-11T20:34:18.601Z,4.97
2017-09-11T20:36:46.222Z,4.27
2017-09-11T20:39:14.589Z,3.30
2017-09-11T20:41:42.949Z,4.30
2017-09-11T20:44:10.572Z,4.50
2017-09-11T20:46:38.179Z,6.97
2017-09-11T20:49:05.788Z,4.33
2017-09-11T20:51:33.376Z,6.63
2017-09-11T20:54:00.984Z,5.30
2017-09-11T20:56:28.582Z,4.87
2017-09-11T20:58:56.205Z,3.53
2017-09-11T21:01:23.804Z,7.37
2017-09-11T21:03:51.433Z,5.33
2017-09-11T21:06:19.045Z,10.60
2017-09-11T21:08:46.670Z,5.67
2017-09-11T21:11:14.308Z,5.20
2017-09-11T21:13:42.703Z,8.70
2017-09-11T21:16:10.303Z,6.27
2017-09-11T21:18:37.895Z,8.40
2017-09-11T21:21:06.311Z,5.20
2017-09-11T21:23:33.915Z,5.40
2017-09-11T21:26:01.532Z,5.00
2017-09-11T21:28:29.120Z,5.97
2017-09-11T21:30:56.750Z,6.27
2017-09-11T21:33:24.338Z,4.10
2017-09-11T21:35:51.968Z,4.63
2017-09-11T21:38:19.904Z,4.10
2017-09-11T21:40:48.283Z,4.93
2017-09-11T21:43:16.650Z,3.60
2017-09-11T21:45:44.283Z,12.30
2017-09-11T21:48:11.877Z,5.47
2017-09-11T21:50:39.507Z,6.90
2017-09-11T21:53:07.109Z,7.10
2017-09-11T21:55:35.488Z,6.23
2017-09-11T21:58:03.855Z,5.80
2017-09-11T22:00:32.280Z,3.83
2017-09-11T22:02:59.900Z,7.07
2017-09-11T22:05:28.279Z,5.70
2017-09-11T22:07:56.645Z,4.73
2017-09-11T22:10:24.247Z,5.63
2017-09-11T22:12:51.852Z,3.70
2017-09-11T22:15:19.471Z,5.00
2017-09-11T22:17:47.102Z,5.50
2017-09-11T22:20:15.464Z,9.77
2017-09-11T22:22:43.096Z,8.07
2017-09-11T22:25:10.713Z,3.30
2017-09-11T22:27:39.114Z,3.57
2017-09-11T22:30:06.713Z,5.93
2017-09-11T22:32:34.329Z,3.53
2017-09-11T22:35:01.926Z,3.83
2017-09-11T22:37:29.564Z,4.97
2017-09-11T22:39:57.161Z,6.77
2017-09-11T22:42:24.837Z,3.60
2017-09-11T22:44:52.423Z,4.23
2017-09-11T22:47:20.800Z,8.10
2017-09-11T22:49:48.440Z,7.97
2017-09-11T22:52:16.836Z,10.60
2017-09-11T22:54:45.237Z,8.70
2017-09-11T22:57:12.864Z,4.40
2017-09-11T22:59:40.482Z,8.37
2017-09-11T23:02:08.096Z,5.10
2017-09-11T23:04:36.461Z,8.90
2017-09-11T23:07:04.091Z,6.33
2017-09-11T23:09:31.716Z,7.20
2017-09-11T23:12:00.106Z,5.23
2017-09-11T23:14:27.741Z,7.27
2017-09-11T23:16:56.111Z,8.63
2017-09-11T23:19:23.728Z,6.10
2017-09-11T23:21:52.343Z,5.23
2017-09-11T23:24:19.963Z,7.40
2017-09-11T23:26:47.574Z,5.87
2017-09-11T23:29:15.196Z,4.70
2017-09-11T23:31:42.782Z,4.87
2017-09-11T23:34:10.387Z,7.50
2017-09-11T23:36:37.992Z,5.63
2017-09-11T23:39:05.649Z,6.27
2017-09-11T23:41:33.304Z,5.57
2017-09-11T23:44:00.934Z,7.93
2017-09-11T23:46:28.537Z,5.27
2017-09-11T23:48:56.164Z,6.60
2017-09-11T23:51:23.772Z,5.13
2017-09-11T23:53:51.396Z,5.40
2017-09-11T23:56:19.025Z,5.10
2017-09-11T23:58:47.416Z,12.77
